sensor_id;sensor_type;location;lat;lon;timestamp;temperature;humidity
25410;DHT22;13339;50.840;4.346;2023-11-21T00:00:30;13.60;99.90
25410;DHT22;13339;50.840;4.346;2023-11-21T00:02:56;13.70;99.90
25410;DHT22;13339;50.840;4.346;2023-11-21T00:05:22;13.50;99.90
25410;DHT22;13339;50.840;4.346;2023-11-21T00:07:48;13.40;99.90
25410;DHT22;13339;50.840;4.346;2023-11-21T00:10:14;13.40;99.90
25410;DHT22;13339;50.840;4.346;2023-11-21T00:12:41;13.40;99.90
25410;DHT22;13339;50.840;4.346;2023-11-21T00:15:09;13.30;99.90
25410;DHT22;13339;50.840;4.346;2023-11-21T00:17:36;13.30;99.90
25410;DHT22;13339;50.840;4.346;2023-11-21T00:20:03;13.20;99.90
25410;DHT22;13339;50.840;4.346;2023-11-21T00:22:35;13.30;99.90
25410;DHT22;13339;50.840;4.346;2023-11-21T00:25:01;13.30;99.90
25410;DHT22;13339;50.840;4.346;2023-11-21T00:27:28;13.20;99.90
25410;DHT22;13339;50.840;4.346;2023-11-21T00:29:54;13.20;99.90
25410;DHT22;13339;50.840;4.346;2023-11-21T00:32:20;13.30;99.90
25410;DHT22;13339;50.840;4.346;2023-11-21T00:34:45;13.30;99.90
25410;DHT22;13339;50.840;4.346;2023-11-21T00:37:11;13.20;99.90
25410;DHT22;13339;50.840;4.346;2023-11-21T00:39:37;13.10;99.90
25410;DHT22;13339;50.840;4.346;2023-11-21T00:42:02;13.10;99.90
25410;DHT22;13339;50.840;4.346;2023-11-21T00:44:30;13.20;99.90
25410;DHT22;13339;50.840;4.346;2023-11-21T00:46:56;13.20;99.90
25410;DHT22;13339;50.840;4.346;2023-11-21T00:49:22;13.20;99.90
25410;DHT22;13339;50.840;4.346;2023-11-21T00:51:48;13.00;99.90
25410;DHT22;13339;50.840;4.346;2023-11-21T00:54:13;13.00;99.90
25410;DHT22;13339;50.840;4.346;2023-11-21T00:56:39;13.10;99.90
25410;DHT22;13339;50.840;4.346;2023-11-21T00:59:05;13.10;99.90
25410;DHT22;13339;50.840;4.346;2023-11-21T01:01:31;13.10;99.90
25410;DHT22;13339;50.840;4.346;2023-11-21T01:03:56;13.20;99.90
25410;DHT22;13339;50.840;4.346;2023-11-21T01:06:22;13.20;99.90
25410;DHT22;13339;50.840;4.346;2023-11-21T01:08:47;13.20;99.90
25410;DHT22;13339;50.840;4.346;2023-11-21T01:11:13;13.30;99.90
25410;DHT22;13339;50.840;4.346;2023-11-21T01:13:39;13.20;99.90
25410;DHT22;13339;50.840;4.346;2023-11-21T01:16:06;13.30;99.90
25410;DHT22;13339;50.840;4.346;2023-11-21T01:18:32;13.30;99.90
25410;DHT22;13339;50.840;4.346;2023-11-21T01:21:00;13.30;99.90
25410;DHT22;13339;50.840;4.346;2023-11-21T01:23:26;13.30;99.90
25410;DHT22;13339;50.840;4.346;2023-11-21T01:25:52;13.30;99.90
25410;DHT22;13339;50.840;4.346;2023-11-21T01:28:18;13.30;99.90
25410;DHT22;13339;50.840;4.346;2023-11-21T01:30:45;13.30;99.90
25410;DHT22;13339;50.840;4.346;2023-11-21T01:33:11;13.30;99.90
25410;DHT22;13339;50.840;4.346;2023-11-21T01:35:37;13.40;99.90
25410;DHT22;13339;50.840;4.346;2023-11-21T01:38:02;13.30;99.90
25410;DHT22;13339;50.840;4.346;2023-11-21T01:40:29;13.30;99.90
25410;DHT22;13339;50.840;4.346;2023-11-21T01:42:56;13.30;99.90
25410;DHT22;13339;50.840;4.346;2023-11-21T01:45:22;13.30;99.90
25410;DHT22;13339;50.840;4.346;2023-11-21T01:47:50;13.30;99.90
25410;DHT22;13339;50.840;4.346;2023-11-21T01:50:17;13.40;99.90
25410;DHT22;13339;50.840;4.346;2023-11-21T01:52:45;13.30;99.90
25410;DHT22;13339;50.840;4.346;2023-11-21T01:55:11;13.20;99.90
25410;DHT22;13339;50.840;4.346;2023-11-21T01:57:38;13.30;99.90
25410;DHT22;13339;50.840;4.346;2023-11-21T02:00:04;13.30;99.90
25410;DHT22;13339;50.840;4.346;2023-11-21T02:02:46;13.30;99.90
25410;DHT22;13339;50.840;4.346;2023-11-21T02:05:12;13.30;99.90
25410;DHT22;13339;50.840;4.346;2023-11-21T02:07:42;13.20;99.90
25410;DHT22;13339;50.840;4.346;2023-11-21T02:10:10;13.20;99.90
25410;DHT22;13339;50.840;4.346;2023-11-21T02:12:43;13.20;99.90
25410;DHT22;13339;50.840;4.346;2023-11-21T02:15:13;13.20;99.90
25410;DHT22;13339;50.840;4.346;2023-11-21T02:17:49;13.10;99.90
25410;DHT22;13339;50.840;4.346;2023-11-21T02:20:20;13.10;99.90
25410;DHT22;13339;50.840;4.346;2023-11-21T02:22:52;13.10;99.90
25410;DHT22;13339;50.840;4.346;2023-11-21T02:25:28;13.10;99.90
25410;DHT22;13339;50.840;4.346;2023-11-21T02:27:54;13.10;99.90
25410;DHT22;13339;50.840;4.346;2023-11-21T02:30:21;13.20;99.90
25410;DHT22;13339;50.840;4.346;2023-11-21T02:32:48;13.20;99.90
25410;DHT22;13339;50.840;4.346;2023-11-21T02:35:14;13.20;99.90
25410;DHT22;13339;50.840;4.346;2023-11-21T02:37:41;13.10;99.90
25410;DHT22;13339;50.840;4.346;2023-11-21T02:40:09;13.00;99.90
25410;DHT22;13339;50.840;4.346;2023-11-21T02:42:35;13.00;99.90
25410;DHT22;13339;50.840;4.346;2023-11-21T02:45:01;12.90;99.90
25410;DHT22;13339;50.840;4.346;2023-11-21T02:47:26;12.90;99.90
25410;DHT22;13339;50.840;4.346;2023-11-21T02:49:52;12.90;99.90
25410;DHT22;13339;50.840;4.346;2023-11-21T02:52:18;12.70;99.90
25410;DHT22;13339;50.840;4.346;2023-11-21T02:54:44;12.70;99.90
25410;DHT22;13339;50.840;4.346;2023-11-21T02:57:10;12.80;99.90
25410;DHT22;13339;50.840;4.346;2023-11-21T02:59:35;12.90;99.90
25410;DHT22;13339;50.840;4.346;2023-11-21T03:02:01;12.90;99.90
25410;DHT22;13339;50.840;4.346;2023-11-21T03:04:27;12.90;99.90
25410;DHT22;13339;50.840;4.346;2023-11-21T03:06:52;13.00;99.90
25410;DHT22;13339;50.840;4.346;2023-11-21T03:09:18;13.00;99.90
25410;DHT22;13339;50.840;4.346;2023-11-21T03:11:43;13.00;99.90
25410;DHT22;13339;50.840;4.346;2023-11-21T03:14:09;13.00;99.90
25410;DHT22;13339;50.840;4.346;2023-11-21T03:16:36;12.90;99.90
25410;DHT22;13339;50.840;4.346;2023-11-21T03:19:04;12.90;99.90
25410;DHT22;13339;50.840;4.346;2023-11-21T03:21:30;12.90;99.90
25410;DHT22;13339;50.840;4.346;2023-11-21T03:23:56;12.90;99.90
25410;DHT22;13339;50.840;4.346;2023-11-21T03:26:21;13.00;99.90
25410;DHT22;13339;50.840;4.346;2023-11-21T03:28:47;13.00;99.90
25410;DHT22;13339;50.840;4.346;2023-11-21T03:31:12;13.00;99.90
25410;DHT22;13339;50.840;4.346;2023-11-21T03:33:38;13.00;99.90
25410;DHT22;13339;50.840;4.346;2023-11-21T03:36:04;13.00;99.90
25410;DHT22;13339;50.840;4.346;2023-11-21T03:38:29;13.00;99.90
25410;DHT22;13339;50.840;4.346;2023-11-21T03:40:55;13.10;99.90
25410;DHT22;13339;50.840;4.346;2023-11-21T03:43:21;13.20;99.90
25410;DHT22;13339;50.840;4.346;2023-11-21T03:45:46;13.10;99.90
25410;DHT22;13339;50.840;4.346;2023-11-21T03:48:12;13.10;99.90
25410;DHT22;13339;50.840;4.346;2023-11-21T03:50:38;13.00;99.90
25410;DHT22;13339;50.840;4.346;2023-11-21T03:53:04;13.10;99.90
25410;DHT22;13339;50.840;4.346;2023-11-21T03:55:29;13.20;99.90
25410;DHT22;13339;50.840;4.346;2023-11-21T03:57:57;13.30;99.90
25410;DHT22;13339;50.840;4.346;2023-11-21T04:00:23;13.20;99.90
25410;DHT22;13339;50.840;4.346;2023-11-21T04:02:49;13.10;99.90
25410;DHT22;13339;50.840;4.346;2023-11-21T04:05:16;13.10;99.90
25410;DHT22;13339;50.840;4.346;2023-11-21T04:07:41;13.10;99.90
25410;DHT22;13339;50.840;4.346;2023-11-21T04:10:08;13.10;99.90
25410;DHT22;13339;50.840;4.346;2023-11-21T04:12:37;13.20;99.90
25410;DHT22;13339;50.840;4.346;2023-11-21T04:15:03;13.30;99.90
25410;DHT22;13339;50.840;4.346;2023-11-21T04:17:29;13.40;99.90
25410;DHT22;13339;50.840;4.346;2023-11-21T04:19:55;13.30;99.90
25410;DHT22;13339;50.840;4.346;2023-11-21T04:22:21;13.30;99.90
25410;DHT22;13339;50.840;4.346;2023-11-21T04:24:46;13.30;99.90
25410;DHT22;13339;50.840;4.346;2023-11-21T04:27:12;13.30;99.90
25410;DHT22;13339;50.840;4.346;2023-11-21T04:29:38;13.10;99.90
25410;DHT22;13339;50.840;4.346;2023-11-21T04:32:04;13.10;99.90
25410;DHT22;13339;50.840;4.346;2023-11-21T04:34:30;13.10;99.90
25410;DHT22;13339;50.840;4.346;2023-11-21T04:36:59;13.10;99.90
25410;DHT22;13339;50.840;4.346;2023-11-21T04:39:25;13.20;99.90
25410;DHT22;13339;50.840;4.346;2023-11-21T04:41:50;13.20;99.90
25410;DHT22;13339;50.840;4.346;2023-11-21T04:44:16;13.10;99.90
25410;DHT22;13339;50.840;4.346;2023-11-21T04:46:42;13.20;99.90
25410;DHT22;13339;50.840;4.346;2023-11-21T04:49:08;13.20;99.90
25410;DHT22;13339;50.840;4.346;2023-11-21T04:51:34;13.30;99.90
25410;DHT22;13339;50.840;4.346;2023-11-21T04:53:59;13.30;99.90
25410;DHT22;13339;50.840;4.346;2023-11-21T04:56:25;13.40;99.90
25410;DHT22;13339;50.840;4.346;2023-11-21T04:58:50;13.30;99.90
25410;DHT22;13339;50.840;4.346;2023-11-21T05:01:16;13.40;99.90
25410;DHT22;13339;50.840;4.346;2023-11-21T05:03:42;13.40;99.90
25410;DHT22;13339;50.840;4.346;2023-11-21T05:06:10;13.40;99.90
25410;DHT22;13339;50.840;4.346;2023-11-21T05:08:35;13.40;99.90
25410;DHT22;13339;50.840;4.346;2023-11-21T05:11:02;13.40;99.90
25410;DHT22;13339;50.840;4.346;2023-11-21T05:13:28;13.40;99.90
25410;DHT22;13339;50.840;4.346;2023-11-21T05:15:56;13.50;99.90
25410;DHT22;13339;50.840;4.346;2023-11-21T05:18:22;13.40;99.90
25410;DHT22;13339;50.840;4.346;2023-11-21T05:20:48;13.40;99.90
25410;DHT22;13339;50.840;4.346;2023-11-21T05:23:14;13.40;99.90
25410;DHT22;13339;50.840;4.346;2023-11-21T05:25:39;13.50;99.90
25410;DHT22;13339;50.840;4.346;2023-11-21T05:28:06;13.50;99.90
25410;DHT22;13339;50.840;4.346;2023-11-21T05:30:32;13.40;99.90
25410;DHT22;13339;50.840;4.346;2023-11-21T05:32:58;13.40;99.90
25410;DHT22;13339;50.840;4.346;2023-11-21T05:35:23;13.40;99.90
25410;DHT22;13339;50.840;4.346;2023-11-21T05:37:49;13.50;99.90
25410;DHT22;13339;50.840;4.346;2023-11-21T05:40:14;13.60;99.90
25410;DHT22;13339;50.840;4.346;2023-11-21T05:42:40;13.60;99.90
25410;DHT22;13339;50.840;4.346;2023-11-21T05:45:07;13.60;99.90
25410;DHT22;13339;50.840;4.346;2023-11-21T05:47:41;13.60;99.90
25410;DHT22;13339;50.840;4.346;2023-11-21T05:50:11;13.40;99.90
25410;DHT22;13339;50.840;4.346;2023-11-21T05:52:38;13.30;99.90
25410;DHT22;13339;50.840;4.346;2023-11-21T05:55:05;13.40;99.90
25410;DHT22;13339;50.840;4.346;2023-11-21T05:57:37;13.40;99.90
25410;DHT22;13339;50.840;4.346;2023-11-21T06:00:08;13.50;99.90
25410;DHT22;13339;50.840;4.346;2023-11-21T06:02:41;13.50;99.90
25410;DHT22;13339;50.840;4.346;2023-11-21T06:05:07;13.50;99.90
25410;DHT22;13339;50.840;4.346;2023-11-21T06:07:34;13.50;99.90
25410;DHT22;13339;50.840;4.346;2023-11-21T06:10:04;13.60;99.90
25410;DHT22;13339;50.840;4.346;2023-11-21T06:12:37;13.60;99.90
25410;DHT22;13339;50.840;4.346;2023-11-21T06:15:05;13.60;99.90
25410;DHT22;13339;50.840;4.346;2023-11-21T06:17:36;13.60;99.90
25410;DHT22;13339;50.840;4.346;2023-11-21T06:20:06;13.50;99.90
25410;DHT22;13339;50.840;4.346;2023-11-21T06:22:37;13.60;99.90
25410;DHT22;13339;50.840;4.346;2023-11-21T06:25:03;13.50;99.90
25410;DHT22;13339;50.840;4.346;2023-11-21T06:27:31;13.50;99.90
25410;DHT22;13339;50.840;4.346;2023-11-21T06:29:57;13.40;99.90
25410;DHT22;13339;50.840;4.346;2023-11-21T06:32:23;13.40;99.90
25410;DHT22;13339;50.840;4.346;2023-11-21T06:34:48;13.40;99.90
25410;DHT22;13339;50.840;4.346;2023-11-21T06:37:15;13.50;99.90
25410;DHT22;13339;50.840;4.346;2023-11-21T06:39:42;13.30;99.90
25410;DHT22;13339;50.840;4.346;2023-11-21T06:42:08;13.40;99.90
25410;DHT22;13339;50.840;4.346;2023-11-21T06:44:33;13.30;99.90
25410;DHT22;13339;50.840;4.346;2023-11-21T06:47:00;13.30;99.90
25410;DHT22;13339;50.840;4.346;2023-11-21T06:49:26;13.30;99.90
25410;DHT22;13339;50.840;4.346;2023-11-21T06:51:51;13.40;99.90
25410;DHT22;13339;50.840;4.346;2023-11-21T06:54:18;13.40;99.90
25410;DHT22;13339;50.840;4.346;2023-11-21T06:56:44;13.40;99.90
25410;DHT22;13339;50.840;4.346;2023-11-21T06:59:10;13.40;99.90
25410;DHT22;13339;50.840;4.346;2023-11-21T07:01:36;13.40;99.90
25410;DHT22;13339;50.840;4.346;2023-11-21T07:04:05;13.50;99.90
25410;DHT22;13339;50.840;4.346;2023-11-21T07:06:31;13.40;99.90
25410;DHT22;13339;50.840;4.346;2023-11-21T07:08:57;13.50;99.90
25410;DHT22;13339;50.840;4.346;2023-11-21T07:11:24;13.40;99.90
25410;DHT22;13339;50.840;4.346;2023-11-21T07:13:50;13.50;99.90
25410;DHT22;13339;50.840;4.346;2023-11-21T07:16:16;13.60;99.90
25410;DHT22;13339;50.840;4.346;2023-11-21T07:18:42;13.70;99.90
25410;DHT22;13339;50.840;4.346;2023-11-21T07:21:08;13.60;99.90
25410;DHT22;13339;50.840;4.346;2023-11-21T07:23:34;13.50;99.90
25410;DHT22;13339;50.840;4.346;2023-11-21T07:25:59;13.60;99.90
25410;DHT22;13339;50.840;4.346;2023-11-21T07:28:25;13.70;99.90
25410;DHT22;13339;50.840;4.346;2023-11-21T07:30:51;13.60;99.90
25410;DHT22;13339;50.840;4.346;2023-11-21T07:33:18;13.70;99.90
25410;DHT22;13339;50.840;4.346;2023-11-21T07:35:43;13.80;99.90
25410;DHT22;13339;50.840;4.346;2023-11-21T07:38:09;13.70;99.90
25410;DHT22;13339;50.840;4.346;2023-11-21T07:40:34;13.80;99.90
25410;DHT22;13339;50.840;4.346;2023-11-21T07:43:00;13.90;99.90
25410;DHT22;13339;50.840;4.346;2023-11-21T07:45:26;14.00;99.90
25410;DHT22;13339;50.840;4.346;2023-11-21T07:47:54;14.00;99.90
25410;DHT22;13339;50.840;4.346;2023-11-21T07:50:21;14.10;99.90
25410;DHT22;13339;50.840;4.346;2023-11-21T07:52:46;14.10;99.90
25410;DHT22;13339;50.840;4.346;2023-11-21T07:55:12;14.10;99.90
25410;DHT22;13339;50.840;4.346;2023-11-21T07:57:39;14.20;99.90
25410;DHT22;13339;50.840;4.346;2023-11-21T08:00:06;14.20;99.90
25410;DHT22;13339;50.840;4.346;2023-11-21T08:02:34;14.10;99.90
25410;DHT22;13339;50.840;4.346;2023-11-21T08:05:00;14.20;99.90
25410;DHT22;13339;50.840;4.346;2023-11-21T08:07:26;14.30;99.90
25410;DHT22;13339;50.840;4.346;2023-11-21T08:09:51;14.30;99.90
25410;DHT22;13339;50.840;4.346;2023-11-21T08:12:18;14.30;99.90
25410;DHT22;13339;50.840;4.346;2023-11-21T08:14:45;14.30;99.90
25410;DHT22;13339;50.840;4.346;2023-11-21T08:17:11;14.10;99.90
25410;DHT22;13339;50.840;4.346;2023-11-21T08:19:36;14.20;99.90
25410;DHT22;13339;50.840;4.346;2023-11-21T08:22:03;14.20;99.90
25410;DHT22;13339;50.840;4.346;2023-11-21T08:24:30;14.20;99.90
25410;DHT22;13339;50.840;4.346;2023-11-21T08:26:56;14.00;99.90
25410;DHT22;13339;50.840;4.346;2023-11-21T08:29:21;14.10;99.90
25410;DHT22;13339;50.840;4.346;2023-11-21T08:31:48;14.20;99.90
25410;DHT22;13339;50.840;4.346;2023-11-21T08:34:27;14.30;99.90
25410;DHT22;13339;50.840;4.346;2023-11-21T08:36:53;14.40;99.90
25410;DHT22;13339;50.840;4.346;2023-11-21T08:39:19;14.10;99.90
25410;DHT22;13339;50.840;4.346;2023-11-21T08:41:45;14.20;99.90
25410;DHT22;13339;50.840;4.346;2023-11-21T08:44:11;14.10;99.90
25410;DHT22;13339;50.840;4.346;2023-11-21T08:46:36;14.20;99.90
25410;DHT22;13339;50.840;4.346;2023-11-21T08:49:03;14.30;99.90
25410;DHT22;13339;50.840;4.346;2023-11-21T08:51:29;14.30;99.90
25410;DHT22;13339;50.840;4.346;2023-11-21T08:53:54;14.20;99.90
25410;DHT22;13339;50.840;4.346;2023-11-21T08:56:24;14.30;99.90
25410;DHT22;13339;50.840;4.346;2023-11-21T08:58:50;14.30;99.90
25410;DHT22;13339;50.840;4.346;2023-11-21T09:01:16;14.40;99.90
25410;DHT22;13339;50.840;4.346;2023-11-21T09:03:42;14.50;99.90
25410;DHT22;13339;50.840;4.346;2023-11-21T09:06:09;14.50;99.90
25410;DHT22;13339;50.840;4.346;2023-11-21T09:08:35;14.50;99.90
25410;DHT22;13339;50.840;4.346;2023-11-21T09:11:01;14.50;99.90
25410;DHT22;13339;50.840;4.346;2023-11-21T09:13:28;14.50;99.90
25410;DHT22;13339;50.840;4.346;2023-11-21T09:15:55;14.50;99.90
25410;DHT22;13339;50.840;4.346;2023-11-21T09:18:20;14.40;99.90
25410;DHT22;13339;50.840;4.346;2023-11-21T09:20:46;14.40;99.90
25410;DHT22;13339;50.840;4.346;2023-11-21T09:23:12;14.40;99.90
25410;DHT22;13339;50.840;4.346;2023-11-21T09:25:37;14.40;99.90
25410;DHT22;13339;50.840;4.346;2023-11-21T09:28:04;14.40;99.90
25410;DHT22;13339;50.840;4.346;2023-11-21T09:30:34;14.60;99.90
25410;DHT22;13339;50.840;4.346;2023-11-21T09:32:59;14.60;99.90
25410;DHT22;13339;50.840;4.346;2023-11-21T09:35:26;14.60;99.90
25410;DHT22;13339;50.840;4.346;2023-11-21T09:37:53;14.70;99.90
25410;DHT22;13339;50.840;4.346;2023-11-21T09:40:21;14.80;99.90
25410;DHT22;13339;50.840;4.346;2023-11-21T09:42:57;14.80;99.90
25410;DHT22;13339;50.840;4.346;2023-11-21T09:45:32;14.80;99.90
25410;DHT22;13339;50.840;4.346;2023-11-21T09:47:59;14.80;99.90
25410;DHT22;13339;50.840;4.346;2023-11-21T09:50:25;14.70;99.90
25410;DHT22;13339;50.840;4.346;2023-11-21T09:55:25;14.80;99.90
25410;DHT22;13339;50.840;4.346;2023-11-21T09:57:53;14.90;99.90
25410;DHT22;13339;50.840;4.346;2023-11-21T10:00:21;14.90;99.90
25410;DHT22;13339;50.840;4.346;2023-11-21T10:02:49;14.90;99.90
25410;DHT22;13339;50.840;4.346;2023-11-21T10:05:16;14.80;99.90
25410;DHT22;13339;50.840;4.346;2023-11-21T10:07:43;14.90;99.90
25410;DHT22;13339;50.840;4.346;2023-11-21T10:10:10;14.90;99.90
25410;DHT22;13339;50.840;4.346;2023-11-21T10:12:37;14.80;99.90
25410;DHT22;13339;50.840;4.346;2023-11-21T10:15:07;14.50;99.90
25410;DHT22;13339;50.840;4.346;2023-11-21T10:17:36;14.20;99.90
25410;DHT22;13339;50.840;4.346;2023-11-21T10:20:10;14.00;99.90
25410;DHT22;13339;50.840;4.346;2023-11-21T10:22:42;14.00;99.90
25410;DHT22;13339;50.840;4.346;2023-11-21T10:25:11;13.70;99.90
25410;DHT22;13339;50.840;4.346;2023-11-21T10:27:40;13.60;99.90
25410;DHT22;13339;50.840;4.346;2023-11-21T10:30:08;13.10;99.90
25410;DHT22;13339;50.840;4.346;2023-11-21T10:32:37;12.90;99.90
25410;DHT22;13339;50.840;4.346;2023-11-21T10:35:03;13.00;99.90
25410;DHT22;13339;50.840;4.346;2023-11-21T10:37:39;13.00;99.90
25410;DHT22;13339;50.840;4.346;2023-11-21T10:40:12;13.20;99.90
25410;DHT22;13339;50.840;4.346;2023-11-21T10:42:38;13.40;99.90
25410;DHT22;13339;50.840;4.346;2023-11-21T10:45:05;13.50;99.90
25410;DHT22;13339;50.840;4.346;2023-11-21T10:47:39;13.60;99.90
25410;DHT22;13339;50.840;4.346;2023-11-21T10:50:05;13.60;99.90
25410;DHT22;13339;50.840;4.346;2023-11-21T10:52:31;13.70;99.90
25410;DHT22;13339;50.840;4.346;2023-11-21T10:54:56;13.70;99.90
25410;DHT22;13339;50.840;4.346;2023-11-21T10:57:25;13.90;99.90
25410;DHT22;13339;50.840;4.346;2023-11-21T10:59:54;14.00;99.90
25410;DHT22;13339;50.840;4.346;2023-11-21T11:02:26;13.80;99.90
25410;DHT22;13339;50.840;4.346;2023-11-21T11:04:54;14.00;99.90
25410;DHT22;13339;50.840;4.346;2023-11-21T11:07:27;14.40;99.90
25410;DHT22;13339;50.840;4.346;2023-11-21T11:09:54;14.50;99.90
25410;DHT22;13339;50.840;4.346;2023-11-21T11:12:20;14.60;99.90
25410;DHT22;13339;50.840;4.346;2023-11-21T11:14:46;14.60;99.90
25410;DHT22;13339;50.840;4.346;2023-11-21T11:17:13;14.50;99.90
25410;DHT22;13339;50.840;4.346;2023-11-21T11:19:39;14.50;99.90
25410;DHT22;13339;50.840;4.346;2023-11-21T11:22:34;14.30;99.90
25410;DHT22;13339;50.840;4.346;2023-11-21T11:25:30;14.30;99.90
25410;DHT22;13339;50.840;4.346;2023-11-21T11:38:47;14.50;99.90
25410;DHT22;13339;50.840;4.346;2023-11-21T11:41:25;14.50;99.90
25410;DHT22;13339;50.840;4.346;2023-11-21T11:43:51;14.40;99.90
25410;DHT22;13339;50.840;4.346;2023-11-21T11:46:16;14.40;99.90
25410;DHT22;13339;50.840;4.346;2023-11-21T11:48:42;14.40;99.90
25410;DHT22;13339;50.840;4.346;2023-11-21T11:51:12;14.20;99.90
25410;DHT22;13339;50.840;4.346;2023-11-21T11:53:41;14.20;99.90
25410;DHT22;13339;50.840;4.346;2023-11-21T11:56:23;14.10;99.90
25410;DHT22;13339;50.840;4.346;2023-11-21T11:58:54;14.20;99.90
25410;DHT22;13339;50.840;4.346;2023-11-21T12:01:20;14.30;99.90
25410;DHT22;13339;50.840;4.346;2023-11-21T12:06:43;14.30;99.90
25410;DHT22;13339;50.840;4.346;2023-11-21T12:09:34;14.40;99.90
25410;DHT22;13339;50.840;4.346;2023-11-21T12:12:02;14.10;99.90
25410;DHT22;13339;50.840;4.346;2023-11-21T12:14:28;13.90;99.90
25410;DHT22;13339;50.840;4.346;2023-11-21T12:16:54;14.00;99.90
25410;DHT22;13339;50.840;4.346;2023-11-21T12:19:20;14.00;99.90
25410;DHT22;13339;50.840;4.346;2023-11-21T12:21:46;13.70;99.90
25410;DHT22;13339;50.840;4.346;2023-11-21T12:24:14;13.70;99.90
25410;DHT22;13339;50.840;4.346;2023-11-21T12:26:40;13.80;99.90
25410;DHT22;13339;50.840;4.346;2023-11-21T12:29:06;13.90;99.90
25410;DHT22;13339;50.840;4.346;2023-11-21T12:31:33;14.00;99.90
25410;DHT22;13339;50.840;4.346;2023-11-21T12:34:00;14.00;99.90
25410;DHT22;13339;50.840;4.346;2023-11-21T12:36:26;14.00;99.90
25410;DHT22;13339;50.840;4.346;2023-11-21T12:38:51;14.00;99.90
25410;DHT22;13339;50.840;4.346;2023-11-21T12:41:17;13.90;99.90
25410;DHT22;13339;50.840;4.346;2023-11-21T12:43:43;14.00;99.90
25410;DHT22;13339;50.840;4.346;2023-11-21T12:46:10;14.00;99.90
25410;DHT22;13339;50.840;4.346;2023-11-21T12:48:41;14.00;99.90
25410;DHT22;13339;50.840;4.346;2023-11-21T12:51:11;14.10;99.90
25410;DHT22;13339;50.840;4.346;2023-11-21T12:53:38;14.10;99.90
25410;DHT22;13339;50.840;4.346;2023-11-21T12:56:13;14.00;99.90
25410;DHT22;13339;50.840;4.346;2023-11-21T12:58:44;14.10;99.90
25410;DHT22;13339;50.840;4.346;2023-11-21T13:01:14;13.90;99.90
25410;DHT22;13339;50.840;4.346;2023-11-21T13:03:46;13.90;99.90
25410;DHT22;13339;50.840;4.346;2023-11-21T13:06:14;14.00;99.90
25410;DHT22;13339;50.840;4.346;2023-11-21T13:08:40;13.70;99.90
25410;DHT22;13339;50.840;4.346;2023-11-21T13:11:06;13.70;99.90
25410;DHT22;13339;50.840;4.346;2023-11-21T13:13:32;13.50;99.90
25410;DHT22;13339;50.840;4.346;2023-11-21T13:16:01;13.50;99.90
25410;DHT22;13339;50.840;4.346;2023-11-21T13:18:29;13.40;99.90
25410;DHT22;13339;50.840;4.346;2023-11-21T13:20:58;13.50;99.90
25410;DHT22;13339;50.840;4.346;2023-11-21T13:23:25;13.50;99.90
25410;DHT22;13339;50.840;4.346;2023-11-21T13:25:51;13.60;99.90
25410;DHT22;13339;50.840;4.346;2023-11-21T13:28:18;13.40;99.90
25410;DHT22;13339;50.840;4.346;2023-11-21T13:30:46;13.30;99.90
25410;DHT22;13339;50.840;4.346;2023-11-21T13:33:13;13.30;99.90
25410;DHT22;13339;50.840;4.346;2023-11-21T13:35:43;13.20;99.90
25410;DHT22;13339;50.840;4.346;2023-11-21T13:38:18;13.20;99.90
25410;DHT22;13339;50.840;4.346;2023-11-21T13:40:52;13.30;99.90
25410;DHT22;13339;50.840;4.346;2023-11-21T13:43:24;13.50;99.90
25410;DHT22;13339;50.840;4.346;2023-11-21T13:45:51;13.40;99.90
25410;DHT22;13339;50.840;4.346;2023-11-21T13:48:24;13.50;99.90
25410;DHT22;13339;50.840;4.346;2023-11-21T13:51:14;13.50;99.90
25410;DHT22;13339;50.840;4.346;2023-11-21T13:53:46;13.60;99.90
25410;DHT22;13339;50.840;4.346;2023-11-21T13:56:17;13.40;99.90
25410;DHT22;13339;50.840;4.346;2023-11-21T13:58:49;13.40;99.90
25410;DHT22;13339;50.840;4.346;2023-11-21T14:01:18;13.10;99.90
25410;DHT22;13339;50.840;4.346;2023-11-21T14:04:13;13.10;99.90
25410;DHT22;13339;50.840;4.346;2023-11-21T14:06:49;12.90;99.90
25410;DHT22;13339;50.840;4.346;2023-11-21T14:09:18;12.80;99.90
25410;DHT22;13339;50.840;4.346;2023-11-21T14:11:52;12.90;99.90
25410;DHT22;13339;50.840;4.346;2023-11-21T14:14:19;12.80;99.90
25410;DHT22;13339;50.840;4.346;2023-11-21T14:16:45;12.80;99.90
25410;DHT22;13339;50.840;4.346;2023-11-21T14:19:11;12.80;99.90
25410;DHT22;13339;50.840;4.346;2023-11-21T14:21:47;12.90;99.90
25410;DHT22;13339;50.840;4.346;2023-11-21T14:24:14;12.90;99.90
25410;DHT22;13339;50.840;4.346;2023-11-21T14:26:43;12.70;99.90
25410;DHT22;13339;50.840;4.346;2023-11-21T14:29:12;12.70;99.90
25410;DHT22;13339;50.840;4.346;2023-11-21T14:31:40;12.60;99.90
25410;DHT22;13339;50.840;4.346;2023-11-21T14:34:06;12.60;99.90
25410;DHT22;13339;50.840;4.346;2023-11-21T14:36:33;12.40;99.90
25410;DHT22;13339;50.840;4.346;2023-11-21T14:38:58;12.50;99.90
25410;DHT22;13339;50.840;4.346;2023-11-21T14:41:24;12.60;99.90
25410;DHT22;13339;50.840;4.346;2023-11-21T14:43:51;12.60;99.90
25410;DHT22;13339;50.840;4.346;2023-11-21T14:46:16;12.70;99.90
25410;DHT22;13339;50.840;4.346;2023-11-21T14:48:45;12.80;99.90
25410;DHT22;13339;50.840;4.346;2023-11-21T14:51:30;12.80;99.90
25410;DHT22;13339;50.840;4.346;2023-11-21T14:54:16;12.90;99.90
25410;DHT22;13339;50.840;4.346;2023-11-21T14:56:50;12.90;99.90
25410;DHT22;13339;50.840;4.346;2023-11-21T14:59:16;12.80;99.90
25410;DHT22;13339;50.840;4.346;2023-11-21T15:01:42;12.70;99.90
25410;DHT22;13339;50.840;4.346;2023-11-21T15:04:11;12.70;99.90
25410;DHT22;13339;50.840;4.346;2023-11-21T15:07:01;12.70;99.90
25410;DHT22;13339;50.840;4.346;2023-11-21T15:09:28;12.70;99.90
25410;DHT22;13339;50.840;4.346;2023-11-21T15:11:56;12.70;99.90
25410;DHT22;13339;50.840;4.346;2023-11-21T15:14:29;12.60;99.90
25410;DHT22;13339;50.840;4.346;2023-11-21T15:16:58;12.60;99.90
25410;DHT22;13339;50.840;4.346;2023-11-21T15:19:26;12.50;99.90
25410;DHT22;13339;50.840;4.346;2023-11-21T15:21:52;12.60;99.90
25410;DHT22;13339;50.840;4.346;2023-11-21T15:24:17;12.60;99.90
25410;DHT22;13339;50.840;4.346;2023-11-21T15:26:43;12.70;99.90
25410;DHT22;13339;50.840;4.346;2023-11-21T15:29:09;12.70;99.90
25410;DHT22;13339;50.840;4.346;2023-11-21T15:31:36;12.60;99.90
25410;DHT22;13339;50.840;4.346;2023-11-21T15:34:03;12.50;99.90
25410;DHT22;13339;50.840;4.346;2023-11-21T15:36:30;12.40;99.90
25410;DHT22;13339;50.840;4.346;2023-11-21T15:38:56;12.40;99.90
25410;DHT22;13339;50.840;4.346;2023-11-21T15:41:21;12.30;99.90
25410;DHT22;13339;50.840;4.346;2023-11-21T15:43:47;12.30;99.90
25410;DHT22;13339;50.840;4.346;2023-11-21T15:46:15;12.30;99.90
25410;DHT22;13339;50.840;4.346;2023-11-21T15:48:41;12.40;99.90